createdAt,value
2023-05-10T00:00:27.095Z,8.20
2023-05-10T00:02:54.084Z,8.33
2023-05-10T00:05:20.921Z,8.98
2023-05-10T00:07:47.498Z,8.77
2023-05-10T00:10:14.403Z,8.88
2023-05-10T00:12:41.218Z,7.95
2023-05-10T00:15:08.763Z,8.87
2023-05-10T00:17:35.732Z,8.48
2023-05-10T00:20:02.233Z,9.02
2023-05-10T00:22:29.014Z,7.43
2023-05-10T00:24:55.803Z,9.23
2023-05-10T00:27:22.280Z,9.63
2023-05-10T00:29:48.714Z,10.27
2023-05-10T00:32:15.456Z,11.10
2023-05-10T00:34:42.112Z,11.45
2023-05-10T00:37:08.727Z,12.15
2023-05-10T00:39:35.664Z,12.40
2023-05-10T00:42:02.653Z,12.73
2023-05-10T00:44:30.166Z,13.02
2023-05-10T00:46:56.655Z,12.77
2023-05-10T00:49:23.282Z,13.93
2023-05-10T00:51:50.662Z,12.63
2023-05-10T00:54:17.427Z,13.65
2023-05-10T00:56:49.499Z,12.55
2023-05-10T00:59:19.994Z,13.90
2023-05-10T01:01:47.749Z,14.43
2023-05-10T01:04:15.957Z,14.40
2023-05-10T01:06:44.114Z,15.63
2023-05-10T01:09:12.756Z,16.88
2023-05-10T01:11:40.921Z,16.27
2023-05-10T01:14:08.212Z,15.02
2023-05-10T01:16:42.651Z,16.63
2023-05-10T01:19:19.412Z,15.65
2023-05-10T01:21:53.738Z,16.05
2023-05-10T01:24:57.411Z,16.05
2023-05-10T01:27:27.030Z,15.40
2023-05-10T01:30:14.737Z,16.37
2023-05-10T01:32:53.244Z,14.93
2023-05-10T01:35:33.084Z,14.43
2023-05-10T01:38:23.698Z,16.00
2023-05-10T01:41:04.396Z,17.65
2023-05-10T01:43:49.273Z,15.83
2023-05-10T01:46:22.776Z,15.70
2023-05-10T01:48:53.779Z,15.82
2023-05-10T01:51:24.323Z,14.55
2023-05-10T01:53:55.373Z,15.32
2023-05-10T01:56:26.782Z,16.57
2023-05-10T01:58:54.643Z,16.65
2023-05-10T02:01:23.010Z,15.93
2023-05-10T02:03:52.496Z,15.40
2023-05-10T02:06:22.578Z,16.70
2023-05-10T02:08:50.545Z,15.73
2023-05-10T02:11:18.662Z,15.02
2023-05-10T02:13:48.385Z,16.15
2023-05-10T02:16:17.287Z,16.42
2023-05-10T02:18:44.998Z,15.02
2023-05-10T02:21:12.797Z,16.37
2023-05-10T02:23:40.296Z,16.45
2023-05-10T02:26:08.011Z,16.50
2023-05-10T02:28:36.494Z,15.00
2023-05-10T02:31:03.657Z,16.08
2023-05-10T02:33:32.536Z,14.93
2023-05-10T02:36:00.168Z,16.92
2023-05-10T02:38:27.867Z,16.85
2023-05-10T02:40:55.446Z,16.23
2023-05-10T02:43:24.672Z,17.45
2023-05-10T02:45:51.389Z,16.80
2023-05-10T02:48:19.547Z,17.30
2023-05-10T02:50:49.576Z,18.73
2023-05-10T02:53:22.038Z,16.55
2023-05-10T02:55:52.860Z,17.13
2023-05-10T02:58:22.359Z,16.77
2023-05-10T03:00:48.865Z,15.80
2023-05-10T03:03:15.339Z,17.67
2023-05-10T03:05:41.898Z,18.10
2023-05-10T03:08:08.609Z,17.58
2023-05-10T03:10:42.255Z,17.90
2023-05-10T03:13:25.621Z,18.27
2023-05-10T03:15:52.222Z,20.25
2023-05-10T03:18:29.562Z,20.35
2023-05-10T03:21:04.133Z,19.88
2023-05-10T03:23:37.906Z,19.40
2023-05-10T03:26:06.405Z,18.92
2023-05-10T03:28:35.038Z,17.92
2023-05-10T03:31:02.513Z,18.90
2023-05-10T03:33:29.075Z,17.42
2023-05-10T03:35:55.565Z,18.03
2023-05-10T03:38:22.659Z,18.92
2023-05-10T03:40:49.178Z,18.38
2023-05-10T03:43:15.971Z,17.67
2023-05-10T03:45:42.524Z,20.05
2023-05-10T03:48:10.390Z,17.70
2023-05-10T03:50:36.877Z,18.02
2023-05-10T03:53:03.862Z,18.42
2023-05-10T03:55:30.538Z,18.17
2023-05-10T03:57:57.224Z,18.65
2023-05-10T04:00:25.267Z,17.80
2023-05-10T04:02:52.299Z,17.33
2023-05-10T04:05:19.188Z,18.13
2023-05-10T04:07:46.281Z,19.00
2023-05-10T04:12:53.707Z,17.50
2023-05-10T04:15:20.514Z,17.40
2023-05-10T04:23:10.070Z,17.08
2023-05-10T04:25:36.604Z,16.47
2023-05-10T04:28:04.227Z,16.67
2023-05-10T04:30:31.112Z,16.98
2023-05-10T04:32:57.734Z,15.75
2023-05-10T04:35:24.454Z,17.38
2023-05-10T04:37:51.361Z,15.63
2023-05-10T04:40:17.962Z,16.73
2023-05-10T04:42:45.012Z,17.92
2023-05-10T04:45:11.757Z,17.73
2023-05-10T04:47:38.545Z,17.10
2023-05-10T04:50:05.852Z,17.83
2023-05-10T04:52:32.325Z,16.42
2023-05-10T04:54:59.118Z,17.30
2023-05-10T04:57:25.746Z,17.67
2023-05-10T04:59:52.262Z,17.23
2023-05-10T05:02:18.868Z,16.97
2023-05-10T05:04:45.378Z,17.75
2023-05-10T05:07:12.010Z,19.30
2023-05-10T05:09:38.488Z,17.83
2023-05-10T05:12:05.467Z,18.10
2023-05-10T05:14:31.957Z,18.43
2023-05-10T05:16:58.682Z,18.75
2023-05-10T05:19:25.287Z,18.70
2023-05-10T05:21:51.892Z,18.50
2023-05-10T05:24:18.396Z,18.08
2023-05-10T05:26:44.879Z,17.73
2023-05-10T05:29:11.686Z,17.67
2023-05-10T05:31:38.375Z,18.58
2023-05-10T05:34:04.988Z,19.15
2023-05-10T05:36:32.461Z,19.00
2023-05-10T05:38:58.902Z,19.80
2023-05-10T05:41:25.597Z,19.42
2023-05-10T05:43:52.032Z,18.90
2023-05-10T05:46:19.084Z,19.73
2023-05-10T05:48:45.620Z,20.17
2023-05-10T05:51:12.437Z,18.33
2023-05-10T05:53:38.900Z,19.55
2023-05-10T05:56:05.697Z,19.50
2023-05-10T05:58:32.381Z,19.67
2023-05-10T06:00:58.847Z,18.85
2023-05-10T06:03:25.431Z,18.03
2023-05-10T06:05:52.061Z,17.13
2023-05-10T06:08:18.547Z,19.75
2023-05-10T06:10:45.557Z,18.95
2023-05-10T06:13:12.103Z,17.10
2023-05-10T06:15:39.211Z,16.27
2023-05-10T06:18:06.925Z,16.83
2023-05-10T06:20:33.625Z,16.70
2023-05-10T06:23:00.166Z,16.60
2023-05-10T06:25:26.703Z,17.27
2023-05-10T06:27:57.987Z,16.60
2023-05-10T06:30:28.572Z,18.35
2023-05-10T06:32:55.853Z,16.17
2023-05-10T06:35:22.491Z,15.93
2023-05-10T06:37:49.833Z,15.65
2023-05-10T06:40:16.571Z,15.30
2023-05-10T06:42:43.113Z,16.92
2023-05-10T06:45:10.227Z,14.98
2023-05-10T06:47:38.925Z,14.60
2023-05-10T06:50:06.485Z,12.63
2023-05-10T06:52:33.204Z,13.07
2023-05-10T06:54:59.713Z,13.88
2023-05-10T06:57:31.773Z,12.30
2023-05-10T06:59:59.535Z,11.73
2023-05-10T07:02:26.257Z,10.82
2023-05-10T07:04:53.462Z,10.67
2023-05-10T07:07:20.211Z,9.65
2023-05-10T07:09:47.165Z,9.20
2023-05-10T07:12:15.310Z,9.73
2023-05-10T07:14:42.947Z,9.60
2023-05-10T07:17:09.646Z,9.00
2023-05-10T07:19:36.868Z,8.23
2023-05-10T07:22:03.509Z,8.35
2023-05-10T07:24:33.179Z,7.18
2023-05-10T07:26:59.738Z,7.45
2023-05-10T07:29:26.719Z,7.13
2023-05-10T07:31:57.200Z,6.45
2023-05-10T07:34:25.629Z,7.35
2023-05-10T07:36:52.681Z,6.93
2023-05-10T07:39:26.743Z,7.15
2023-05-10T07:41:54.450Z,7.27
2023-05-10T07:44:21.546Z,7.85
2023-05-10T07:46:49.114Z,7.00
2023-05-10T07:49:15.736Z,7.80
2023-05-10T07:51:43.359Z,8.05
2023-05-10T07:54:12.147Z,7.77
2023-05-10T07:56:40.845Z,7.65
2023-05-10T07:59:12.563Z,8.23
2023-05-10T08:01:40.737Z,7.05
2023-05-10T08:04:07.451Z,6.75
2023-05-10T08:06:38.179Z,6.83
2023-05-10T08:09:06.121Z,6.60
2023-05-10T08:11:35.027Z,6.82
2023-05-10T08:14:01.911Z,6.38
2023-05-10T08:16:28.658Z,6.95
2023-05-10T08:18:58.514Z,5.40
2023-05-10T08:21:27.252Z,6.57
2023-05-10T08:23:53.738Z,6.32
2023-05-10T08:26:22.396Z,6.80
2023-05-10T08:28:50.083Z,6.10
2023-05-10T08:31:17.094Z,6.67
2023-05-10T08:33:44.700Z,7.57
2023-05-10T08:36:11.646Z,7.30
2023-05-10T08:38:39.366Z,8.05
2023-05-10T08:41:12.683Z,7.43
2023-05-10T08:43:40.118Z,8.07
2023-05-10T08:46:08.820Z,7.68
2023-05-10T08:48:35.722Z,8.05
2023-05-10T08:51:04.598Z,7.15
2023-05-10T08:53:34.004Z,7.80
2023-05-10T08:56:02.132Z,7.30
2023-05-10T08:58:28.976Z,8.20
2023-05-10T09:00:56.490Z,8.00
2023-05-10T09:03:23.094Z,7.70
2023-05-10T09:05:50.464Z,7.65
2023-05-10T09:08:18.617Z,7.53
2023-05-10T09:10:47.956Z,6.95
2023-05-10T09:13:16.878Z,7.10
2023-05-10T09:15:48.123Z,6.75
2023-05-10T09:18:14.814Z,6.60
2023-05-10T09:20:41.628Z,6.73
2023-05-10T09:23:08.813Z,6.80
2023-05-10T09:25:35.793Z,6.03
2023-05-10T09:28:02.948Z,5.22
2023-05-10T09:30:31.601Z,4.65
2023-05-10T09:33:00.163Z,4.50
2023-05-10T09:35:29.887Z,4.68
2023-05-10T09:38:03.887Z,4.47
2023-05-10T09:40:31.159Z,3.90
2023-05-10T09:43:00.129Z,3.20
2023-05-10T09:45:28.997Z,2.47
2023-05-10T09:47:58.223Z,2.90
2023-05-10T09:50:25.169Z,2.72
2023-05-10T09:52:54.133Z,2.83
2023-05-10T09:55:23.103Z,3.28
2023-05-10T09:57:51.228Z,2.50
2023-05-10T10:00:20.973Z,2.83
2023-05-10T10:02:49.626Z,2.70
2023-05-10T10:05:16.462Z,2.92
2023-05-10T10:07:43.364Z,3.30
2023-05-10T10:10:13.198Z,2.97
2023-05-10T10:12:41.771Z,3.15
2023-05-10T10:15:09.947Z,3.20
2023-05-10T10:17:39.293Z,3.17
2023-05-10T10:20:06.787Z,2.72
2023-05-10T10:22:33.352Z,3.03
2023-05-10T10:25:00.793Z,3.00
2023-05-10T10:27:48.937Z,3.92
2023-05-10T10:30:21.414Z,3.42
2023-05-10T10:32:53.616Z,3.60
2023-05-10T10:35:20.354Z,3.30
2023-05-10T10:37:48.790Z,3.80
2023-05-10T10:40:29.594Z,4.13
2023-05-10T10:42:58.169Z,4.03
2023-05-10T10:45:26.366Z,3.97
2023-05-10T10:48:21.715Z,3.70
2023-05-10T10:50:48.163Z,3.90
2023-05-10T10:53:14.769Z,3.33
2023-05-10T10:55:49.035Z,3.97
2023-05-10T10:58:35.125Z,3.42
2023-05-10T11:01:18.891Z,3.13
2023-05-10T11:04:05.646Z,3.42
2023-05-10T11:06:33.695Z,3.25
2023-05-10T11:09:06.454Z,3.88
2023-05-10T11:11:33.214Z,3.08
2023-05-10T11:14:05.409Z,3.13
2023-05-10T11:16:45.636Z,3.40
2023-05-10T11:19:14.354Z,3.60
2023-05-10T11:21:52.570Z,3.50
2023-05-10T11:24:24.153Z,3.42
2023-05-10T11:26:52.712Z,2.97
2023-05-10T11:29:19.307Z,3.08
2023-05-10T11:31:47.609Z,3.28
2023-05-10T11:34:37.199Z,2.90
2023-05-10T11:37:03.767Z,3.35
2023-05-10T11:39:36.723Z,3.57
2023-05-10T11:42:03.667Z,3.22
2023-05-10T11:44:32.331Z,2.70
2023-05-10T11:47:06.610Z,2.60
2023-05-10T11:49:33.672Z,3.05
2023-05-10T11:52:12.067Z,2.77
2023-05-10T11:54:38.855Z,2.75
2023-05-10T11:57:05.866Z,2.53
2023-05-10T11:59:32.513Z,2.80
2023-05-10T12:01:59.258Z,2.70
2023-05-10T12:04:26.774Z,2.30
2023-05-10T12:06:53.415Z,2.55
2023-05-10T12:09:31.474Z,2.20
2023-05-10T12:12:06.802Z,2.13
2023-05-10T12:14:36.099Z,2.03
2023-05-10T12:17:03.048Z,1.97
2023-05-10T12:19:38.790Z,2.03
2023-05-10T12:22:06.741Z,1.60
2023-05-10T12:24:36.785Z,1.15
2023-05-10T12:29:52.399Z,1.50
2023-05-10T12:32:19.061Z,1.58
2023-05-10T12:34:47.620Z,2.15
2023-05-10T12:37:14.168Z,1.63
2023-05-10T12:39:45.171Z,1.90
2023-05-10T12:42:12.239Z,1.43
2023-05-10T12:44:39.287Z,1.73
2023-05-10T12:47:06.830Z,1.25
2023-05-10T12:49:33.398Z,1.60
2023-05-10T12:52:00.474Z,1.35
2023-05-10T12:54:27.300Z,1.47
2023-05-10T12:56:53.711Z,1.45
2023-05-10T12:59:20.910Z,2.00
2023-05-10T13:01:47.445Z,1.55
2023-05-10T13:04:13.908Z,1.70
2023-05-10T13:06:40.350Z,1.23
2023-05-10T13:09:06.849Z,1.35
2023-05-10T13:11:33.640Z,1.00
2023-05-10T13:14:00.180Z,1.33
2023-05-10T13:16:26.748Z,1.13
2023-05-10T13:18:53.251Z,1.10
2023-05-10T13:21:21.015Z,2.85
2023-05-10T13:23:47.889Z,2.00
2023-05-10T13:26:14.447Z,2.65
2023-05-10T13:28:42.035Z,2.47
2023-05-10T13:31:08.864Z,3.00
2023-05-10T13:33:35.416Z,2.78
2023-05-10T13:36:01.987Z,3.00
2023-05-10T13:38:30.850Z,2.90
2023-05-10T13:40:57.386Z,2.97
2023-05-10T13:43:25.037Z,3.10
2023-05-10T13:45:51.640Z,3.10
2023-05-10T13:48:18.201Z,2.85
2023-05-10T13:50:44.880Z,2.63
2023-05-10T13:53:12.672Z,2.70
2023-05-10T13:55:39.609Z,2.60
2023-05-10T13:58:06.118Z,3.72
2023-05-10T14:00:32.919Z,3.13
2023-05-10T14:02:59.522Z,2.92
2023-05-10T14:05:26.687Z,3.30
2023-05-10T14:07:53.703Z,3.30
2023-05-10T14:10:21.081Z,3.22
2023-05-10T14:12:47.617Z,3.08
2023-05-10T14:15:14.653Z,3.28
2023-05-10T14:17:41.552Z,2.85
2023-05-10T14:20:09.518Z,3.50
2023-05-10T14:22:36.885Z,3.40
2023-05-10T14:25:03.687Z,3.03
2023-05-10T14:27:30.609Z,2.97
2023-05-10T14:29:57.090Z,3.65
2023-05-10T14:32:23.867Z,4.40
2023-05-10T14:34:50.632Z,4.35
2023-05-10T14:37:17.271Z,4.00
2023-05-10T14:39:43.824Z,4.75
2023-05-10T14:42:10.355Z,4.63
2023-05-10T14:44:36.905Z,4.10
2023-05-10T14:47:03.574Z,3.85
2023-05-10T14:49:32.949Z,3.17
2023-05-10T14:51:59.948Z,3.95
2023-05-10T14:54:26.962Z,4.28
2023-05-10T14:56:53.407Z,4.27
2023-05-10T14:59:19.946Z,3.75
2023-05-10T15:01:47.001Z,4.55
2023-05-10T15:04:14.647Z,4.20
2023-05-10T15:06:41.964Z,3.88
2023-05-10T15:09:08.631Z,4.80
2023-05-10T15:11:35.373Z,4.78
2023-05-10T15:14:03.013Z,5.20
2023-05-10T15:16:29.744Z,5.00
2023-05-10T15:18:56.516Z,5.18
2023-05-10T15:21:23.269Z,4.77
2023-05-10T15:23:49.994Z,5.20
2023-05-10T15:26:16.491Z,5.40
2023-05-10T15:28:44.088Z,5.40
2023-05-10T15:31:11.654Z,4.68
2023-05-10T15:33:39.102Z,5.00
2023-05-10T15:36:05.695Z,5.57
2023-05-10T15:38:32.569Z,5.13
2023-05-10T15:40:59.295Z,5.47
2023-05-10T15:43:25.801Z,4.93
2023-05-10T15:45:52.271Z,4.80
2023-05-10T15:48:18.867Z,4.63
2023-05-10T15:50:45.991Z,4.70
2023-05-10T15:53:12.453Z,4.68
2023-05-10T15:55:39.112Z,4.70
2023-05-10T15:58:05.603Z,4.53
2023-05-10T16:00:33.156Z,4.50
2023-05-10T16:02:59.809Z,3.90
2023-05-10T16:05:29.981Z,3.97
2023-05-10T16:07:56.435Z,4.20
2023-05-10T16:10:22.874Z,3.93
2023-05-10T16:12:49.438Z,3.97
2023-05-10T16:15:16.032Z,3.65
2023-05-10T16:17:42.991Z,3.97
2023-05-10T16:20:09.921Z,3.60
2023-05-10T16:22:38.084Z,3.87
2023-05-10T16:25:05.079Z,3.70
2023-05-10T16:27:33.516Z,3.88
2023-05-10T16:30:00.056Z,3.28
2023-05-10T16:32:26.645Z,4.13
2023-05-10T16:34:53.627Z,4.03
2023-05-10T16:37:20.173Z,3.50
2023-05-10T16:39:46.667Z,3.35
2023-05-10T16:42:14.357Z,3.85
2023-05-10T16:44:40.895Z,3.80
2023-05-10T16:47:07.759Z,3.07
2023-05-10T16:49:37.330Z,3.75
2023-05-10T16:52:03.839Z,3.22
2023-05-10T16:54:30.522Z,3.33
2023-05-10T16:56:57.014Z,3.20
2023-05-10T16:59:23.862Z,3.63
2023-05-10T17:01:53.204Z,3.28
2023-05-10T17:04:19.965Z,3.53
2023-05-10T17:06:46.732Z,3.45
2023-05-10T17:09:13.378Z,3.10
2023-05-10T17:11:39.875Z,2.90
2023-05-10T17:14:06.381Z,3.17
2023-05-10T17:16:32.943Z,2.75
2023-05-10T17:18:59.603Z,2.85
2023-05-10T17:21:26.200Z,2.10
2023-05-10T17:23:52.667Z,2.63
2023-05-10T17:26:19.156Z,2.30
2023-05-10T17:28:45.933Z,2.33
2023-05-10T17:31:12.495Z,1.83
2023-05-10T17:33:39.496Z,2.72
2023-05-10T17:36:06.520Z,2.10
2023-05-10T17:38:32.947Z,2.35
2023-05-10T17:40:59.415Z,2.20
2023-05-10T17:43:26.465Z,2.30
2023-05-10T17:45:53.079Z,2.28
2023-05-10T17:48:20.938Z,2.17
2023-05-10T17:50:49.944Z,2.80
2023-05-10T17:53:16.509Z,2.58
2023-05-10T17:55:43.786Z,2.85
2023-05-10T17:58:12.056Z,2.90
2023-05-10T18:00:38.989Z,2.90
2023-05-10T18:03:06.061Z,2.63
2023-05-10T18:05:36.687Z,3.03
2023-05-10T18:08:04.292Z,3.20
2023-05-10T18:10:32.703Z,2.85
2023-05-10T18:12:59.392Z,3.00
2023-05-10T18:15:27.687Z,3.03
2023-05-10T18:17:55.819Z,3.90
2023-05-10T18:20:22.888Z,3.42
2023-05-10T18:22:49.780Z,3.45
2023-05-10T18:25:16.649Z,3.37
2023-05-10T18:27:43.418Z,3.22
2023-05-10T18:30:12.614Z,3.88
2023-05-10T18:32:39.819Z,3.90
2023-05-10T18:35:07.754Z,3.67
2023-05-10T18:37:34.924Z,3.57
2023-05-10T18:40:01.819Z,3.40
2023-05-10T18:42:28.377Z,3.60
2023-05-10T18:44:55.336Z,4.43
2023-05-10T18:47:21.927Z,4.00
2023-05-10T18:49:48.445Z,4.10
2023-05-10T18:52:16.166Z,4.60
2023-05-10T18:54:42.652Z,4.50
2023-05-10T18:57:09.464Z,4.55
2023-05-10T18:59:35.960Z,4.00
2023-05-10T19:02:02.626Z,5.10
2023-05-10T19:04:29.541Z,5.10
2023-05-10T19:06:56.178Z,4.47
2023-05-10T19:09:23.223Z,4.75
2023-05-10T19:11:51.401Z,3.63
2023-05-10T19:14:17.905Z,4.50
2023-05-10T19:16:44.510Z,4.25
2023-05-10T19:19:11.092Z,4.68
2023-05-10T19:21:39.926Z,4.72
2023-05-10T19:24:06.801Z,3.85
2023-05-10T19:26:35.192Z,4.70
2023-05-10T19:29:04.891Z,4.65
2023-05-10T19:31:33.536Z,4.60
2023-05-10T19:34:00.901Z,4.45
2023-05-10T19:36:27.628Z,5.28
2023-05-10T19:38:54.075Z,4.40
2023-05-10T19:41:21.424Z,5.00
2023-05-10T19:43:47.952Z,4.45
2023-05-10T19:46:14.573Z,5.50
2023-05-10T19:48:42.132Z,5.43
2023-05-10T19:51:10.292Z,4.93
2023-05-10T19:53:36.920Z,5.47
2023-05-10T19:56:07.189Z,4.80
2023-05-10T19:58:34.356Z,5.00
2023-05-10T20:01:01.455Z,5.00
2023-05-10T20:03:29.051Z,4.80
2023-05-10T20:05:55.620Z,4.25
2023-05-10T20:08:22.105Z,4.57
2023-05-10T20:10:48.592Z,4.82
2023-05-10T20:13:16.093Z,4.20
2023-05-10T20:15:42.651Z,5.13
2023-05-10T20:18:09.592Z,4.68
2023-05-10T20:20:36.172Z,4.93
2023-05-10T20:23:02.713Z,4.82
2023-05-10T20:25:29.274Z,5.35
2023-05-10T20:27:55.875Z,5.43
2023-05-10T20:30:23.221Z,6.10
2023-05-10T20:32:49.817Z,4.78
2023-05-10T20:35:16.616Z,6.07
2023-05-10T20:37:43.189Z,6.18
2023-05-10T20:40:11.270Z,5.73
2023-05-10T20:42:37.978Z,5.07
2023-05-10T20:45:04.951Z,5.35
2023-05-10T20:47:33.381Z,6.20
2023-05-10T20:49:59.830Z,6.20
2023-05-10T20:52:26.353Z,5.77
2023-05-10T20:54:53.147Z,5.97
2023-05-10T20:57:20.101Z,5.75
2023-05-10T20:59:46.754Z,5.50
2023-05-10T21:02:13.591Z,6.07
2023-05-10T21:04:42.438Z,6.37
2023-05-10T21:07:09.208Z,5.20
2023-05-10T21:09:35.803Z,5.95
2023-05-10T21:12:03.378Z,5.90
2023-05-10T21:14:30.988Z,5.38
2023-05-10T21:16:57.572Z,5.53
2023-05-10T21:19:24.076Z,5.45
2023-05-10T21:21:50.699Z,5.80
2023-05-10T21:24:17.690Z,6.72
2023-05-10T21:26:44.376Z,5.65
2023-05-10T21:29:10.850Z,5.93
2023-05-10T21:31:37.474Z,5.55
2023-05-10T21:34:03.902Z,5.45
2023-05-10T21:36:30.432Z,5.63
2023-05-10T21:38:56.957Z,5.00
2023-05-10T21:41:23.665Z,5.70
2023-05-10T21:43:50.162Z,5.43
2023-05-10T21:46:16.786Z,5.88
2023-05-10T21:48:43.418Z,6.07
2023-05-10T21:51:09.908Z,6.53
2023-05-10T21:53:37.590Z,5.03
2023-05-10T21:56:04.134Z,5.97
2023-05-10T21:58:30.639Z,5.85
2023-05-10T22:00:57.156Z,5.50
2023-05-10T22:03:25.676Z,5.53
2023-05-10T22:05:52.624Z,4.87
2023-05-10T22:08:19.119Z,6.03
2023-05-10T22:10:45.643Z,5.22
2023-05-10T22:13:12.152Z,5.43
2023-05-10T22:15:39.511Z,4.57
2023-05-10T22:18:06.119Z,5.00
2023-05-10T22:20:33.587Z,5.00
2023-05-10T22:23:00.080Z,5.70
2023-05-10T22:25:26.626Z,5.68
2023-05-10T22:27:53.545Z,6.28
2023-05-10T22:30:20.185Z,5.67
2023-05-10T22:32:47.180Z,6.07
2023-05-10T22:35:13.727Z,5.85
2023-05-10T22:37:40.517Z,5.53
2023-05-10T22:40:07.741Z,5.50
2023-05-10T22:42:34.210Z,5.40
2023-05-10T22:45:00.745Z,5.72
2023-05-10T22:47:27.352Z,5.90
2023-05-10T22:49:55.288Z,5.88
2023-05-10T22:52:21.803Z,5.60
2023-05-10T22:54:48.443Z,5.63
2023-05-10T22:57:16.194Z,6.20
2023-05-10T22:59:43.079Z,5.75
2023-05-10T23:02:09.923Z,6.13
2023-05-10T23:04:37.092Z,6.28
2023-05-10T23:07:03.677Z,5.97
2023-05-10T23:09:30.398Z,5.80
2023-05-10T23:11:57.418Z,6.13
2023-05-10T23:14:24.071Z,5.88
2023-05-10T23:16:52.343Z,5.85
2023-05-10T23:19:19.162Z,6.37
2023-05-10T23:21:47.143Z,6.45
2023-05-10T23:24:13.623Z,6.80
2023-05-10T23:26:40.129Z,6.78
2023-05-10T23:29:06.644Z,5.75
2023-05-10T23:31:34.292Z,6.70
2023-05-10T23:34:00.842Z,7.35
2023-05-10T23:36:27.357Z,6.50
2023-05-10T23:38:53.860Z,6.07
2023-05-10T23:41:20.354Z,7.22
2023-05-10T23:43:46.906Z,6.27
2023-05-10T23:46:13.448Z,7.03
2023-05-10T23:48:40.000Z,7.35
2023-05-10T23:51:06.580Z,6.93
2023-05-10T23:53:33.088Z,7.13
2023-05-10T23:55:59.560Z,6.93
2023-05-10T23:58:26.089Z,8.30
